Time;durP1;ratioP1;P1;durP2;ratioP2;P2;SDS_P1;SDS_P2;PMS_P1;PMS_P2;Temp;Humidity;BMP_temperature;BMP_pressure;BME280_temperature;BME280_humidity;BME280_pressure;Samples;Min_cycle;Max_cycle;Signal;HPM_P1;HPM_P2
2021/01/15 14:45:42;;;;;;;8.07;4.67;;;;;;;-0.39;88.67;98585.63;5053890;27;1513145;-87
2021/01/15 14:48:09;;;;;;;8.43;5.53;;;;;;;-0.07;87.50;98587.72;5095329;27;20868;-85
2021/01/15 14:50:35;;;;;;;10.10;6.80;;;;;;;0.25;86.94;98590.59;5075780;28;21064;-84
2021/01/15 14:53:39;;;;;;;10.50;6.70;;;;;;;0.43;84.08;98584.78;5077235;28;20248;-86
2021/01/15 14:56:06;;;;;;;12.43;7.27;;;;;;;0.67;85.29;98593.56;4998893;28;20223;-85
2021/01/15 14:58:43;;;;;;;9.57;5.70;;;;;;;0.67;83.83;98594.41;5008827;28;20330;-85
2021/01/15 15:01:11;;;;;;;7.73;5.03;;;;;;;0.75;81.86;98597.91;5056329;28;20302;-85
2021/01/15 15:03:37;;;;;;;8.57;5.80;;;;;;;0.93;81.97;98602.28;5078410;28;20324;-84
2021/01/15 15:06:04;;;;;;;8.50;5.70;;;;;;;1.00;81.69;98597.22;5076535;28;20248;-86
2021/01/15 15:08:30;;;;;;;10.10;5.70;;;;;;;1.03;81.29;98600.69;5080176;28;20246;-82
2021/01/15 15:10:56;;;;;;;9.80;6.70;;;;;;;1.16;81.03;98604.19;5080434;28;20264;-84
2021/01/15 15:13:23;;;;;;;8.43;5.77;;;;;;;1.18;80.65;98607.63;5082601;27;20323;-85
2021/01/15 15:15:49;;;;;;;9.37;5.63;;;;;;;1.23;80.24;98608.50;5073908;28;20240;-85
2021/01/15 15:18:17;;;;;;;9.27;5.57;;;;;;;1.11;79.38;98613.56;5076135;28;20231;-84
2021/01/15 15:20:43;;;;;;;7.57;5.70;;;;;;;1.16;79.92;98619.59;5075213;28;20951;-85
2021/01/15 15:23:10;;;;;;;9.03;5.97;;;;;;;1.16;79.61;98614.47;5072802;28;20241;-84
2021/01/15 15:25:36;;;;;;;8.53;5.73;;;;;;;1.15;79.46;98612.72;5074892;28;20247;-84
2021/01/15 15:28:03;;;;;;;10.80;5.67;;;;;;;1.21;79.11;98612.75;5077011;28;20239;-85
2021/01/15 15:30:29;;;;;;;10.07;6.10;;;;;;;1.21;79.39;98617.91;5076489;28;20696;-84
2021/01/15 15:32:57;;;;;;;8.80;5.17;;;;;;;1.15;78.40;98618.72;5078955;28;20213;-86
2021/01/15 15:35:24;;;;;;;13.43;5.77;;;;;;;1.27;78.76;98622.22;5073990;28;20221;-85
2021/01/15 15:37:50;;;;;;;9.97;5.57;;;;;;;1.27;78.54;98622.22;5076493;28;20246;-85
2021/01/15 15:40:17;;;;;;;10.00;5.67;;;;;;;1.23;78.52;98631.66;5075474;28;20227;-85
2021/01/15 15:42:43;;;;;;;7.13;4.90;;;;;;;1.25;78.01;98624.81;5077964;28;20665;-84
2021/01/15 15:45:11;;;;;;;10.17;6.73;;;;;;;1.26;78.23;98630.78;5080344;28;20242;-85
2021/01/15 15:47:37;;;;;;;17.70;11.37;;;;;;;1.24;77.92;98629.94;5079462;28;20642;-85
2021/01/15 15:50:04;;;;;;;6.83;5.00;;;;;;;1.21;78.21;98628.19;5077485;28;20220;-84
2021/01/15 15:52:31;;;;;;;8.33;5.50;;;;;;;1.31;78.18;98639.41;5078293;28;20219;-84
2021/01/15 15:54:58;;;;;;;6.67;4.93;;;;;;;1.26;77.93;98644.50;5070326;28;20304;-85
2021/01/15 15:57:24;;;;;;;9.00;5.77;;;;;;;1.28;78.04;98644.50;5060647;28;20263;-85
2021/01/15 15:59:51;;;;;;;9.03;5.87;;;;;;;1.23;77.36;98648.75;5067575;28;20224;-83
2021/01/15 16:05:41;;;;;;;8.60;5.83;;;;;;;1.18;77.58;98646.16;4943546;28;20242;-85
2021/01/15 16:08:09;;;;;;;7.77;5.20;;;;;;;1.12;77.54;98664.09;5061646;28;20333;-85
2021/01/15 16:10:35;;;;;;;7.60;5.30;;;;;;;1.20;77.68;98652.19;5060417;28;20482;-84
2021/01/15 16:13:02;;;;;;;8.13;5.20;;;;;;;1.25;77.49;98668.50;5065604;28;20587;-86
2021/01/15 16:15:28;;;;;;;8.77;5.80;;;;;;;1.24;77.55;98668.47;5060714;28;20243;-85
2021/01/15 16:17:55;;;;;;;7.03;5.23;;;;;;;1.20;77.41;98659.88;5063298;28;20263;-83
2021/01/15 16:20:21;;;;;;;9.53;5.53;;;;;;;1.10;77.49;98663.22;5063740;28;20217;-82
2021/01/15 16:22:53;;;;;;;9.77;5.70;;;;;;;1.13;76.88;98670.97;5063641;28;20225;-84
2021/01/15 16:25:20;;;;;;;7.90;5.57;;;;;;;1.17;77.66;98671.84;5061848;28;20237;-85
2021/01/15 16:27:51;;;;;;;8.57;5.73;;;;;;;1.11;76.83;98670.94;5067288;28;20236;-85
2021/01/15 16:30:18;;;;;;;8.43;5.20;;;;;;;1.14;77.56;98678.69;5064879;28;20209;-83
2021/01/15 16:32:44;;;;;;;7.27;4.77;;;;;;;1.00;77.84;98679.44;5067019;28;20227;-84
2021/01/15 16:35:12;;;;;;;8.33;6.23;;;;;;;1.05;77.47;98683.75;5062681;28;20300;-86
2021/01/15 16:37:38;;;;;;;7.23;4.80;;;;;;;1.03;77.38;98689.72;5065102;28;20264;-86
2021/01/15 16:40:06;;;;;;;7.63;4.87;;;;;;;1.00;77.60;98697.41;5066031;28;20716;-85
2021/01/15 16:42:34;;;;;;;8.77;5.47;;;;;;;0.93;78.15;98692.19;5065390;28;20213;-85
2021/01/15 16:45:01;;;;;;;7.77;5.00;;;;;;;0.95;77.76;98693.06;5065364;28;20319;-84
2021/01/15 16:47:28;;;;;;;12.57;5.60;;;;;;;0.91;77.61;98701.59;5061414;28;20241;-84
2021/01/15 16:49:56;;;;;;;7.83;5.23;;;;;;;0.73;78.43;98697.16;5063582;28;20602;-84
2021/01/15 16:52:23;;;;;;;9.77;5.73;;;;;;;0.69;78.72;98705.69;5064218;28;20799;-84
2021/01/15 16:54:49;;;;;;;8.83;6.13;;;;;;;0.85;78.49;98701.56;5066620;28;20248;-84
2021/01/15 16:57:16;;;;;;;7.73;5.07;;;;;;;0.79;79.07;98700.63;5046947;28;20230;-86
2021/01/15 16:59:43;;;;;;;9.53;5.70;;;;;;;0.80;78.72;98700.66;5065997;28;20213;-86
2021/01/15 17:02:10;;;;;;;12.67;7.07;;;;;;;0.88;78.69;98706.75;5067198;28;20773;-86
2021/01/15 17:04:36;;;;;;;9.20;6.07;;;;;;;0.89;78.88;98710.16;5061156;28;20237;-84
2021/01/15 17:07:02;;;;;;;9.57;6.10;;;;;;;0.80;79.01;98708.34;5060213;28;20275;-86
2021/01/15 17:09:29;;;;;;;9.93;6.40;;;;;;;0.89;78.66;98708.44;5064508;28;20788;-85
2021/01/15 17:11:55;;;;;;;9.73;6.30;;;;;;;0.86;78.64;98713.53;5069054;28;20628;-85
2021/01/15 17:14:21;;;;;;;10.87;6.80;;;;;;;0.85;78.98;98716.13;5061333;28;20307;-86
2021/01/15 17:16:49;;;;;;;8.60;5.70;;;;;;;0.87;78.98;98715.28;5067776;28;20327;-85
2021/01/15 17:19:15;;;;;;;11.93;6.90;;;;;;;1.00;78.69;98711.09;5064857;28;20255;-86
2021/01/15 17:21:42;;;;;;;10.63;6.50;;;;;;;1.00;78.85;98717.97;5060278;28;20332;-84
2021/01/15 17:24:10;;;;;;;10.43;6.73;;;;;;;0.98;78.44;98724.81;5066665;28;20334;-84
2021/01/15 17:26:37;;;;;;;11.47;8.07;;;;;;;0.99;79.11;98713.66;5067061;28;20621;-84
2021/01/15 17:29:04;;;;;;;10.47;6.57;;;;;;;0.99;78.84;98723.94;5065997;28;20758;-86
2021/01/15 17:31:30;;;;;;;10.17;6.93;;;;;;;1.03;78.51;98725.69;5061945;28;20232;-84
2021/01/15 17:33:57;;;;;;;9.80;6.87;;;;;;;0.99;78.52;98724.78;5060001;28;20224;-84
2021/01/15 17:36:24;;;;;;;10.03;5.93;;;;;;;0.98;78.52;98732.50;5062860;28;20324;-86
2021/01/15 17:38:51;;;;;;;9.83;6.73;;;;;;;1.02;78.79;98729.09;5048394;22;20746;-85
2021/01/15 17:41:17;;;;;;;18.30;9.10;;;;;;;0.98;78.86;98738.50;5018751;28;20249;-86
2021/01/15 17:43:45;;;;;;;30.77;19.10;;;;;;;0.95;78.53;98738.47;5022653;28;20234;-84
2021/01/15 17:46:12;;;;;;;19.37;10.30;;;;;;;0.93;78.70;98745.28;5021497;28;20238;-85
2021/01/15 17:48:38;;;;;;;19.63;12.57;;;;;;;0.92;78.68;98747.00;5030846;28;20675;-85
2021/01/15 17:51:06;;;;;;;21.27;14.57;;;;;;;0.95;78.95;98751.31;5038581;28;20626;-83
2021/01/15 17:53:32;;;;;;;21.70;14.63;;;;;;;0.96;78.83;98750.47;5041037;28;20218;-83
2021/01/15 17:55:58;;;;;;;12.80;7.83;;;;;;;0.90;78.68;98751.28;5048609;28;20272;-84
2021/01/15 17:58:25;;;;;;;11.27;8.23;;;;;;;0.88;78.62;98745.25;5040862;28;20765;-84
2021/01/15 18:00:51;;;;;;;16.13;12.27;;;;;;;0.88;78.85;98754.66;5040017;28;20686;-85
2021/01/15 18:03:19;;;;;;;10.90;8.47;;;;;;;0.93;79.00;98751.28;5041132;28;20297;-85
2021/01/15 18:05:45;;;;;;;11.17;7.43;;;;;;;0.87;79.00;98751.22;5036477;28;20654;-85
2021/01/15 18:08:12;;;;;;;9.60;6.43;;;;;;;0.86;79.22;98757.19;5039796;28;21330;-85
2021/01/15 18:10:40;;;;;;;9.10;5.60;;;;;;;0.84;79.33;98756.34;5039954;28;20669;-86
2021/01/15 18:13:18;;;;;;;9.70;6.73;;;;;;;0.82;78.91;98757.19;5038980;28;20237;-85
2021/01/15 18:15:44;;;;;;;9.33;6.70;;;;;;;0.88;79.09;98760.69;5033601;28;20237;-85
2021/01/15 18:18:11;;;;;;;11.00;6.30;;;;;;;0.80;79.32;98759.72;5047166;28;20741;-85
2021/01/15 18:20:43;;;;;;;9.10;6.30;;;;;;;0.83;79.03;98764.91;5038929;28;20238;-85
2021/01/15 18:23:10;;;;;;;16.90;10.77;;;;;;;0.87;79.01;98760.66;5044835;28;20313;-84
2021/01/15 18:25:38;;;;;;;8.83;6.30;;;;;;;0.90;78.76;98761.56;5041355;28;20937;-83
2021/01/15 18:28:05;;;;;;;10.97;6.50;;;;;;;0.87;79.18;98763.22;5042838;28;20597;-85
2021/01/15 18:30:31;;;;;;;9.17;5.63;;;;;;;0.88;79.05;98758.09;5039315;28;20230;-83
2021/01/15 18:32:58;;;;;;;8.50;5.70;;;;;;;0.84;79.34;98764.03;5038775;28;20321;-83
2021/01/15 18:35:25;;;;;;;8.70;5.57;;;;;;;0.82;79.20;98758.03;5036370;28;20278;-85
2021/01/15 18:37:52;;;;;;;9.53;6.43;;;;;;;0.80;79.15;98762.28;5038358;28;20246;-84
2021/01/15 18:40:19;;;;;;;9.80;6.43;;;;;;;0.84;79.13;98760.63;5039986;28;20225;-83
2021/01/15 18:42:46;;;;;;;9.17;6.43;;;;;;;0.87;78.88;98756.38;5040139;28;20653;-84
2021/01/15 18:45:14;;;;;;;9.57;6.23;;;;;;;0.91;78.92;98768.41;5038625;28;20238;-84
2021/01/15 18:48:11;;;;;;;8.27;6.47;;;;;;;0.82;79.08;98768.31;5040658;28;20234;-84
2021/01/15 18:50:37;;;;;;;11.27;7.27;;;;;;;0.82;79.40;98770.88;5040994;28;20320;-86
2021/01/15 18:53:06;;;;;;;9.23;6.47;;;;;;;0.90;79.02;98770.94;5042553;28;20244;-85
2021/01/15 18:55:32;;;;;;;10.13;6.03;;;;;;;0.90;79.16;98776.97;5040170;28;20858;-86
2021/01/15 18:58:00;;;;;;;10.50;7.07;;;;;;;0.86;78.95;98780.31;5040357;28;20345;-85
2021/01/15 19:00:29;;;;;;;8.97;6.13;;;;;;;0.80;79.32;98782.84;5039481;28;20248;-84
2021/01/15 19:02:55;;;;;;;9.60;5.57;;;;;;;0.77;79.30;98777.66;5040999;28;20214;-85
2021/01/15 19:05:22;;;;;;;8.60;5.80;;;;;;;0.74;79.36;98775.94;5038442;28;20795;-84
2021/01/15 19:07:51;;;;;;;8.43;6.07;;;;;;;0.72;79.76;98776.78;5040637;28;20233;-85
2021/01/15 19:10:19;;;;;;;9.60;6.13;;;;;;;0.58;80.04;98774.03;5040495;28;20865;-84
2021/01/15 19:12:50;;;;;;;10.23;6.03;;;;;;;0.55;80.15;98784.25;5043201;28;20214;-85
2021/01/15 19:15:17;;;;;;;7.83;5.53;;;;;;;0.55;80.60;98785.16;5040729;28;20245;-83
2021/01/15 19:17:43;;;;;;;9.90;6.10;;;;;;;0.56;80.05;98786.84;5038839;28;20652;-85
2021/01/15 19:20:10;;;;;;;9.03;5.67;;;;;;;0.51;80.83;98775.66;5036942;28;20731;-83
2021/01/15 19:22:37;;;;;;;10.90;5.20;;;;;;;0.55;80.71;98790.28;5042536;28;20210;-83
2021/01/15 19:25:04;;;;;;;9.03;5.70;;;;;;;0.55;80.88;98780.00;5040102;28;20272;-84
2021/01/15 19:27:34;;;;;;;9.57;6.23;;;;;;;0.45;81.26;98780.72;5039012;28;20230;-85
2021/01/15 19:30:01;;;;;;;9.43;7.03;;;;;;;0.55;80.94;98780.00;5039633;28;20305;-85
2021/01/15 19:32:30;;;;;;;9.73;6.67;;;;;;;0.63;80.52;98781.81;5041973;28;20336;-83
2021/01/15 19:34:56;;;;;;;11.70;6.57;;;;;;;0.59;80.59;98786.03;5046155;28;20246;-84
2021/01/15 19:37:23;;;;;;;8.80;5.23;;;;;;;0.52;80.63;98790.22;5037752;28;20238;-84
2021/01/15 19:39:49;;;;;;;15.47;8.87;;;;;;;0.50;80.63;98791.06;5041468;28;20333;-84
2021/01/15 19:45:28;;;;;;;13.93;8.73;;;;;;;0.47;80.30;98786.75;5025238;28;20271;-84
2021/01/15 19:47:55;;;;;;;11.93;7.90;;;;;;;0.46;80.59;98794.41;5044101;28;20328;-85
2021/01/15 19:50:21;;;;;;;8.07;5.53;;;;;;;0.38;80.66;98802.03;5038012;28;20673;-85
2021/01/15 19:52:48;;;;;;;12.17;6.97;;;;;;;0.38;80.32;98802.88;5042243;28;20888;-83
2021/01/15 19:55:15;;;;;;;9.67;6.00;;;;;;;0.42;80.21;98798.66;5042507;28;20293;-85
2021/01/15 19:57:45;;;;;;;8.83;5.97;;;;;;;0.32;79.85;98807.09;5043000;28;20827;-85
2021/01/15 20:00:12;;;;;;;12.37;6.40;;;;;;;0.41;80.37;98807.22;5038923;28;20218;-85
2021/01/15 20:02:40;;;;;;;9.80;6.63;;;;;;;0.46;79.99;98803.00;5043443;28;20979;-84
2021/01/15 20:05:08;;;;;;;10.47;6.20;;;;;;;0.52;79.43;98805.63;5041330;28;20264;-86
2021/01/15 20:07:34;;;;;;;12.30;7.27;;;;;;;0.56;79.68;98804.81;5041031;28;20325;-83
2021/01/15 20:10:01;;;;;;;10.73;5.97;;;;;;;0.50;79.74;98801.34;5040374;28;20322;-84
2021/01/15 20:12:27;;;;;;;11.83;6.57;;;;;;;0.49;80.11;98799.59;5040521;28;20947;-86
2021/01/15 20:14:54;;;;;;;10.67;6.33;;;;;;;0.39;80.21;98798.63;5041919;28;20758;-85
2021/01/15 20:17:20;;;;;;;32.73;15.47;;;;;;;0.33;79.78;98807.13;5040805;28;20261;-85
2021/01/15 20:19:46;;;;;;;57.70;27.13;;;;;;;0.37;79.76;98808.03;5042531;28;20301;-83
2021/01/15 20:22:13;;;;;;;35.27;16.53;;;;;;;0.35;79.68;98801.97;5039111;28;20337;-83
2021/01/15 20:24:40;;;;;;;23.20;12.27;;;;;;;0.35;79.71;98804.53;5043363;28;20273;-84
2021/01/15 20:27:06;;;;;;;23.80;13.10;;;;;;;0.36;79.57;98813.97;5040337;28;20238;-85
2021/01/15 20:29:33;;;;;;;17.37;10.10;;;;;;;0.30;79.27;98804.50;5022865;28;20668;-86
2021/01/15 20:31:59;;;;;;;21.00;13.17;;;;;;;0.20;80.36;98807.78;5040696;28;20281;-85
2021/01/15 20:34:27;;;;;;;11.10;7.27;;;;;;;0.25;79.80;98810.41;5041302;28;20301;-84
2021/01/15 20:36:53;;;;;;;10.27;6.70;;;;;;;0.21;80.24;98800.97;5042455;28;20237;-85
2021/01/15 20:39:20;;;;;;;11.00;6.70;;;;;;;0.31;79.43;98811.38;5042476;28;20281;-84
2021/01/15 20:41:47;;;;;;;13.27;8.27;;;;;;;0.35;79.67;98809.69;5038985;28;20710;-83
2021/01/15 21:03:32;;;;;;;67.90;21.53;;;;;;;0.01;80.33;98821.22;5648076;22;20247;-85
2021/01/15 21:05:58;;;;;;;24.73;9.80;;;;;;;-0.15;81.46;98814.97;5022260;28;20298;-85
2021/01/15 21:08:24;;;;;;;139.10;42.13;;;;;;;0.03;80.58;98825.50;5022343;28;20250;-84
2021/01/15 21:10:51;;;;;;;19.97;10.23;;;;;;;0.04;80.37;98832.38;5022086;28;20334;-86
2021/01/15 21:13:27;;;;;;;37.70;20.57;;;;;;;0.10;80.96;98831.59;5007841;28;20272;-86
2021/01/15 21:16:44;;;;;;;16.20;10.90;;;;;;;0.16;79.99;98831.69;5061382;27;20558;-86
2021/01/15 21:19:10;;;;;;;11.50;7.50;;;;;;;0.14;80.65;98836.78;5049842;28;20309;-86
2021/01/15 21:21:37;;;;;;;10.70;7.07;;;;;;;0.21;80.37;98829.19;5043562;28;20327;-86
2021/01/15 21:24:04;;;;;;;10.20;5.40;;;;;;;0.15;80.52;98838.53;5043190;28;20256;-86
2021/01/15 21:26:30;;;;;;;10.17;6.57;;;;;;;0.15;80.48;98828.25;5053820;28;20335;-88
2021/01/15 21:28:57;;;;;;;11.30;7.00;;;;;;;0.16;80.27;98826.53;5064950;28;20243;-87
2021/01/15 21:31:23;;;;;;;4.60;2.73;;;;;;;-0.03;81.32;98841.69;5051270;28;20699;-85
2021/01/15 21:33:50;;;;;;;11.27;6.43;;;;;;;0.09;80.54;98845.25;5042995;28;20296;-86
2021/01/15 21:36:17;;;;;;;11.53;6.90;;;;;;;0.17;80.52;98841.97;5040099;28;20322;-87
2021/01/15 21:39:34;;;;;;;11.23;6.73;;;;;;;0.12;80.01;98832.47;5041129;28;20693;-87
2021/01/15 21:42:01;;;;;;;9.73;5.40;;;;;;;0.15;80.77;98841.09;5026232;28;20718;-88
2021/01/15 21:44:33;;;;;;;10.63;7.03;;;;;;;0.03;80.80;98833.19;5043878;28;20218;-87
2021/01/15 21:47:18;;;;;;;;;;;;;;;;;;;;;
2021/01/15 21:49:46;;;;;;;10.77;6.23;;;;;;;0.14;80.67;98849.59;5043768;28;20237;-86
2021/01/15 21:52:12;;;;;;;10.87;6.67;;;;;;;0.13;81.25;98842.78;5049754;28;20237;-87
2021/01/15 21:54:39;;;;;;;11.17;5.43;;;;;;;0.09;80.96;98835.88;5051413;28;20610;-87
2021/01/15 23:02:21;;;;;;;11.23;6.63;;;;;;;0.12;80.08;98853.84;5842224;23;20246;-86
2021/01/15 23:11:37;;;;;;;10.83;7.13;;;;;;;-0.03;79.96;98856.22;4979673;28;20207;-86
2021/01/15 23:14:04;;;;;;;10.73;6.37;;;;;;;0.04;80.26;98855.47;4979110;28;20897;-84
2021/01/15 23:16:30;;;;;;;9.50;6.20;;;;;;;0.01;80.60;98859.69;4979925;28;20279;-84
2021/01/15 23:18:57;;;;;;;9.57;6.17;;;;;;;0.01;80.17;98863.09;4979562;28;20235;-86
2021/01/15 23:21:24;;;;;;;10.33;7.10;;;;;;;0.05;80.03;98854.59;4979522;28;20424;-87
2021/01/15 23:23:50;;;;;;;12.13;7.07;;;;;;;0.11;80.23;98854.72;4979058;28;20302;-86
2021/01/15 23:26:51;;;;;;;11.10;6.90;;;;;;;0.12;79.36;98851.28;4977769;28;20223;-86
2021/01/15 23:32:59;;;;;;;10.60;6.67;;;;;;;0.20;79.05;98848.84;4937294;28;20312;-86
2021/01/15 23:35:32;;;;;;;10.37;6.67;;;;;;;0.28;79.51;98856.66;4980798;28;20323;-85
2021/01/15 23:38:02;;;;;;;9.17;6.43;;;;;;;0.33;79.41;98847.28;4978253;28;20274;-87
2021/01/15 23:41:20;;;;;;;12.27;6.97;;;;;;;0.37;78.63;98846.53;4980811;28;20250;-87
2021/01/15 23:43:47;;;;;;;11.13;7.37;;;;;;;0.35;79.11;98837.91;4977332;28;20299;-85
2021/01/15 23:46:13;;;;;;;10.50;6.70;;;;;;;0.36;79.07;98844.78;4978954;28;20310;-86
2021/01/15 23:48:39;;;;;;;10.20;6.33;;;;;;;0.16;79.32;98849.63;4981792;28;20601;-86
2021/01/15 23:51:06;;;;;;;9.07;6.20;;;;;;;0.25;78.40;98846.34;4978055;28;20220;-87
2021/01/15 23:53:34;;;;;;;10.43;6.93;;;;;;;0.30;79.21;98842.16;4977483;28;20311;-86
2021/01/15 23:56:01;;;;;;;9.10;5.87;;;;;;;0.28;78.97;98846.41;4980093;28;20557;-87
2021/01/15 23:58:28;;;;;;;10.07;6.73;;;;;;;0.28;78.57;98836.97;4980623;28;20267;-87
